Maestro Sun — V7ET2 — position and weather

sailwx.info

Track history (hours):
 
Tides and Currents Weather Stations Pressure Air Temp Water Temp Dewpoint Dewpoint Depression Visibility Wind Speed Wind Dir Waves Ship Positions

Maestro Sun

Last reported at 2017-Nov-19 20:01 UTC. Time now 2017-Nov-21 17:38 UTC.
Position N 35°57' W 005°32'.

; draft 5 m.

Type: Ship (hazmat cat A). MMSI: 538001857.

Date/timePositionNaut miles runAvg speedWind from/ knotsBaromVisibWave heightAir tempDewpointWater temp
2017-Nov-19 20:01N 35°57' W 005°32'011.8
2017-Nov-19 20:00N 35°57' W 005°32'612.3
2017-Nov-19 19:30N 36°01' W 005°26'613.0
2017-Nov-19 19:00N 36°07' W 005°24'2 0.8
2017-Nov-19 16:32N 36°08' W 005°26'0 0.0
2017-Nov-19 16:02N 36°08' W 005°26'0 0.0
2017-Nov-19 15:56N 36°08' W 005°26'0 0.0
2017-Nov-19 15:29N 36°08' W 005°26'0 0.0
2017-Nov-19 14:59N 36°08' W 005°26'0 0.7
2017-Nov-19 14:30N 36°08' W 005°26'2 4.3
2017-Nov-19 14:00N 36°07' W 005°24'611.5
2017-Nov-19 13:30N 36°01' W 005°24'611.9
2017-Nov-19 13:01N 35°56' W 005°28'2 0.3
2017-Nov-19 06:49N 35°56' W 005°30'2 7.3
2017-Nov-19 06:30N 35°58' W 005°29'611.9
2017-Nov-19 06:00N 36°03' W 005°24'5 1.2
2017-Nov-19 01:39N 36°08' W 005°26'0 0.0
2017-Nov-19 01:27N 36°08' W 005°26'0 0.0
2017-Nov-19 00:57N 36°08' W 005°26'0 0.0
2017-Nov-19 00:27N 36°08' W 005°26'0 0.0
2017-Nov-18 23:48N 36°08' W 005°26'0 0.0
2017-Nov-18 23:30N 36°08' W 005°26'0 0.0
2017-Nov-18 23:00N 36°08' W 005°26'0 0.0
2017-Nov-18 22:30N 36°08' W 005°26'0 0.0
2017-Nov-18 21:57N 36°08' W 005°26'0 0.0
2017-Nov-18 21:30N 36°08' W 005°26'0 0.3
2017-Nov-18 21:00N 36°08' W 005°26'2 4.5
2017-Nov-18 20:30N 36°06' W 005°24'713.5
2017-Nov-18 20:00N 35°60' W 005°25'7 1.1
2017-Nov-18 13:48N 35°57' W 005°32'413.1
2017-Nov-18 13:30N 35°59' W 005°29'713.4
2017-Nov-18 13:00N 36°04' W 005°24'4 0.6
2017-Nov-18 06:28N 36°08' W 005°26'0 0.0
2017-Nov-18 05:58N 36°08' W 005°26'0 0.0
2017-Nov-18 05:28N 36°08' W 005°26'0 0.0
2017-Nov-18 04:58N 36°08' W 005°26'0 0.0
2017-Nov-18 04:22N 36°08' W 005°26'0 0.0
2017-Nov-18 03:52N 36°08' W 005°26'0 0.0
2017-Nov-18 03:22N 36°08' W 005°26'0 0.0
2017-Nov-18 02:55N 36°08' W 005°26'0 0.0
2017-Nov-18 02:25N 36°08' W 005°26'0 0.0
2017-Nov-18 01:58N 36°08' W 005°26'0 0.0
2017-Nov-18 01:25N 36°08' W 005°26'0 0.0
2017-Nov-18 00:58N 36°08' W 005°26'0 0.0
2017-Nov-18 00:25N 36°08' W 005°26'0 0.0
2017-Nov-17 23:55N 36°08' W 005°26'0 0.0
2017-Nov-17 23:28N 36°08' W 005°26'0 0.0
2017-Nov-17 22:46N 36°08' W 005°26'0 0.0
2017-Nov-17 22:25N 36°08' W 005°26'0 0.0
2017-Nov-17 21:58N 36°08' W 005°26'0 0.0
2017-Nov-17 21:28N 36°08' W 005°26'0 0.0
2017-Nov-17 20:59N 36°08' W 005°26'2 2.6
2017-Nov-17 20:20N 36°09' W 005°25'1 2.2
2017-Nov-17 20:00N 36°09' W 005°24'712.7
2017-Nov-17 19:28N 36°02' W 005°23'614.1
2017-Nov-17 19:00N 35°57' W 005°28'2 0.4
2017-Nov-17 13:30N 35°56' W 005°30'612.5
2017-Nov-17 13:00N 36°01' W 005°25'3 0.5
2017-Nov-17 07:31N 36°03' W 005°23'013.7
2017-Nov-17 07:30N 36°03' W 005°23'613.1
2017-Nov-17 07:00N 35°57' W 005°27'4 0.3
2017-Nov-16 20:14N 35°57' W 005°31'312.4
2017-Nov-16 20:01N 35°59' W 005°29'612.1
2017-Nov-16 19:31N 36°03' W 005°24'2 0.4
2017-Nov-16 13:51N 36°02' W 005°22'513.8
2017-Nov-16 13:30N 35°58' W 005°26'4 0.6
2017-Nov-16 06:32N 35°56' W 005°31'011.8
2017-Nov-16 06:31N 35°57' W 005°30'612.2
2017-Nov-16 06:00N 36°01' W 005°25'613.0
2017-Nov-16 05:30N 36°07' W 005°24'2 0.5
2017-Nov-16 01:49N 36°08' W 005°26'0 0.0
2017-Nov-16 01:25N 36°08' W 005°26'0 0.0
2017-Nov-16 00:49N 36°08' W 005°26'0 0.0
2017-Nov-15 23:31N 36°08' W 005°26'0 0.0
2017-Nov-15 23:13N 36°08' W 005°26'0 0.0
2017-Nov-15 22:13N 36°08' W 005°26'0 0.0
2017-Nov-15 21:37N 36°08' W 005°26'0 0.0
2017-Nov-15 21:13N 36°08' W 005°26'6 4.9
2017-Nov-15 19:56N 36°02' W 005°22'613.3
2017-Nov-15 19:30N 35°58' W 005°26'5 0.9
2017-Nov-15 14:24N 35°57' W 005°32'512.3
2017-Nov-15 14:00N 36°00' W 005°27'4 0.7
2017-Nov-15 07:49N 36°03' W 005°23'412.5
2017-Nov-15 07:30N 35°59' W 005°24'8 0.7
2017-Nov-14 20:46N 35°54' W 005°31'3 9.8
2017-Nov-14 20:29N 35°57' W 005°32'510.8
2017-Nov-14 20:00N 35°60' W 005°27'611.7
2017-Nov-14 19:30N 36°05' W 005°24'3 0.7
2017-Nov-14 14:41N 36°08' W 005°26'6 6.5
2017-Nov-14 13:47N 36°02' W 005°23'413.9
2017-Nov-14 13:31N 35°59' W 005°24'9 0.3
2017-Nov-13 02:00N 36°08' W 005°26'0 0.0
2017-Nov-13 01:30N 36°08' W 005°26'0 0.0
2017-Nov-13 01:00N 36°08' W 005°26'0 0.0
2017-Nov-13 00:30N 36°08' W 005°26'0 0.7
2017-Nov-13 00:00N 36°08' W 005°26'2 3.6
2017-Nov-12 23:29N 36°07' W 005°24'4 7.4
2017-Nov-12 23:00N 36°04' W 005°23'713.4
2017-Nov-12 22:30N 35°58' W 005°26'5 1.2
2017-Nov-12 18:14N 35°57' W 005°32'311.3
2017-Nov-12 18:00N 35°58' W 005°29'5 9.6
2017-Nov-12 17:30N 36°01' W 005°25'711.4
2017-Nov-12 16:53N 36°08' W 005°24'2 4.8
2017-Nov-12 16:30N 36°08' W 005°26'0 0.0
2017-Nov-12 15:59N 36°08' W 005°26'0 0.0
2017-Nov-12 15:26N 36°08' W 005°26'0 0.0
2017-Nov-12 14:59N 36°08' W 005°26'0 0.0
2017-Nov-12 14:26N 36°08' W 005°26'0 0.0
2017-Nov-12 13:56N 36°08' W 005°26'0 0.0
2017-Nov-12 13:26N 36°08' W 005°26'0 0.0
2017-Nov-12 12:59N 36°08' W 005°26'0 0.0
2017-Nov-12 12:29N 36°08' W 005°26'0 0.0
2017-Nov-12 11:56N 36°08' W 005°26'0 0.1
2017-Nov-12 08:51N 36°08' W 005°26'6 8.7
2017-Nov-12 08:09N 36°03' W 005°23'213.9
2017-Nov-12 08:01N 36°01' W 005°23'9 0.8
2017-Nov-11 21:02N 35°57' W 005°32'013.1
2017-Nov-11 21:01N 35°57' W 005°32'612.4
2017-Nov-11 20:30N 36°01' W 005°26'612.5
2017-Nov-11 20:00N 36°07' W 005°24'2 3.9
2017-Nov-11 19:28N 36°08' W 005°26'0 0.0
2017-Nov-11 18:19N 36°08' W 005°26'0 0.0
2017-Nov-11 17:58N 36°08' W 005°26'0 0.0
2017-Nov-11 17:25N 36°08' W 005°26'0 0.0
2017-Nov-11 16:58N 36°08' W 005°26'0 0.0
2017-Nov-11 15:13N 36°08' W 005°26'1 3.0
2017-Nov-11 15:00N 36°08' W 005°26'5 8.1
2017-Nov-11 14:22N 36°04' W 005°23'513.9
2017-Nov-11 14:00N 35°59' W 005°24'6 0.3
2017-Nov-10 19:53N 35°56' W 005°31'512.6
2017-Nov-10 19:30N 35°60' W 005°27'5 0.8
2017-Nov-10 13:50N 36°03' W 005°23'413.5
2017-Nov-10 13:30N 35°59' W 005°25'5 0.7
2017-Nov-10 06:44N 35°56' W 005°31'312.4
2017-Nov-10 06:31N 35°59' W 005°29'612.6
2017-Nov-10 06:01N 36°04' W 005°24'611.1
2017-Nov-10 05:30N 36°09' W 005°26'1 2.5
2017-Nov-10 05:00N 36°08' W 005°26'0 0.0
2017-Nov-10 04:24N 36°08' W 005°26'0 0.0
2017-Nov-10 03:54N 36°08' W 005°26'0 0.0
2017-Nov-10 03:24N 36°08' W 005°26'0 0.0
2017-Nov-10 03:00N 36°08' W 005°26'0 0.0
2017-Nov-10 02:30N 36°08' W 005°26'0 0.0
2017-Nov-10 01:06N 36°08' W 005°26'0 0.0
2017-Nov-10 01:00N 36°08' W 005°26'0 0.0
2017-Nov-10 00:30N 36°08' W 005°26'0 0.0
2017-Nov-10 00:00N 36°08' W 005°26'0 0.0
2017-Nov-09 22:48N 36°08' W 005°26'0 0.0
2017-Nov-09 22:27N 36°08' W 005°26'0 0.0
2017-Nov-09 21:54N 36°08' W 005°26'0 0.3
2017-Nov-09 21:30N 36°08' W 005°26'6 4.3
2017-Nov-09 20:01N 36°02' W 005°23'  
Track history (hours):
 
Tides and Currents Weather Stations Pressure Air Temp Water Temp Dewpoint Dewpoint Depression Visibility Wind Speed Wind Dir Waves Ship Positions

Maestro Sun

Last reported at 2017-Nov-19 20:01 UTC. Time now 2017-Nov-21 17:38 UTC.
Position N 35°57' W 005°32'.

; draft 5 m.

Type: Ship (hazmat cat A). MMSI: 538001857.

Date/timePositionNaut miles runAvg speedWind from/ knotsBaromVisibWave heightAir tempDewpointWater temp
2017-Nov-19 20:01N 35°57' W 005°32'011.8
2017-Nov-19 20:00N 35°57' W 005°32'612.3
2017-Nov-19 19:30N 36°01' W 005°26'613.0
2017-Nov-19 19:00N 36°07' W 005°24'2 0.8
2017-Nov-19 16:32N 36°08' W 005°26'0 0.0
2017-Nov-19 16:02N 36°08' W 005°26'0 0.0
2017-Nov-19 15:56N 36°08' W 005°26'0 0.0
2017-Nov-19 15:29N 36°08' W 005°26'0 0.0
2017-Nov-19 14:59N 36°08' W 005°26'0 0.7
2017-Nov-19 14:30N 36°08' W 005°26'2 4.3
2017-Nov-19 14:00N 36°07' W 005°24'611.5
2017-Nov-19 13:30N 36°01' W 005°24'611.9
2017-Nov-19 13:01N 35°56' W 005°28'2 0.3
2017-Nov-19 06:49N 35°56' W 005°30'2 7.3
2017-Nov-19 06:30N 35°58' W 005°29'611.9
2017-Nov-19 06:00N 36°03' W 005°24'5 1.2
2017-Nov-19 01:39N 36°08' W 005°26'0 0.0
2017-Nov-19 01:27N 36°08' W 005°26'0 0.0
2017-Nov-19 00:57N 36°08' W 005°26'0 0.0
2017-Nov-19 00:27N 36°08' W 005°26'0 0.0
2017-Nov-18 23:48N 36°08' W 005°26'0 0.0
2017-Nov-18 23:30N 36°08' W 005°26'0 0.0
2017-Nov-18 23:00N 36°08' W 005°26'0 0.0
2017-Nov-18 22:30N 36°08' W 005°26'0 0.0
2017-Nov-18 21:57N 36°08' W 005°26'0 0.0
2017-Nov-18 21:30N 36°08' W 005°26'0 0.3
2017-Nov-18 21:00N 36°08' W 005°26'2 4.5
2017-Nov-18 20:30N 36°06' W 005°24'713.5
2017-Nov-18 20:00N 35°60' W 005°25'7 1.1
2017-Nov-18 13:48N 35°57' W 005°32'413.1
2017-Nov-18 13:30N 35°59' W 005°29'713.4
2017-Nov-18 13:00N 36°04' W 005°24'4 0.6
2017-Nov-18 06:28N 36°08' W 005°26'0 0.0
2017-Nov-18 05:58N 36°08' W 005°26'0 0.0
2017-Nov-18 05:28N 36°08' W 005°26'0 0.0
2017-Nov-18 04:58N 36°08' W 005°26'0 0.0
2017-Nov-18 04:22N 36°08' W 005°26'0 0.0
2017-Nov-18 03:52N 36°08' W 005°26'0 0.0
2017-Nov-18 03:22N 36°08' W 005°26'0 0.0
2017-Nov-18 02:55N 36°08' W 005°26'0 0.0
2017-Nov-18 02:25N 36°08' W 005°26'0 0.0
2017-Nov-18 01:58N 36°08' W 005°26'0 0.0
2017-Nov-18 01:25N 36°08' W 005°26'0 0.0
2017-Nov-18 00:58N 36°08' W 005°26'0 0.0
2017-Nov-18 00:25N 36°08' W 005°26'0 0.0
2017-Nov-17 23:55N 36°08' W 005°26'0 0.0
2017-Nov-17 23:28N 36°08' W 005°26'0 0.0
2017-Nov-17 22:46N 36°08' W 005°26'0 0.0
2017-Nov-17 22:25N 36°08' W 005°26'0 0.0
2017-Nov-17 21:58N 36°08' W 005°26'0 0.0
2017-Nov-17 21:28N 36°08' W 005°26'0 0.0
2017-Nov-17 20:59N 36°08' W 005°26'2 2.6
2017-Nov-17 20:20N 36°09' W 005°25'1 2.2
2017-Nov-17 20:00N 36°09' W 005°24'712.7
2017-Nov-17 19:28N 36°02' W 005°23'614.1
2017-Nov-17 19:00N 35°57' W 005°28'2 0.4
2017-Nov-17 13:30N 35°56' W 005°30'612.5
2017-Nov-17 13:00N 36°01' W 005°25'3 0.5
2017-Nov-17 07:31N 36°03' W 005°23'013.7
2017-Nov-17 07:30N 36°03' W 005°23'613.1
2017-Nov-17 07:00N 35°57' W 005°27'4 0.3
2017-Nov-16 20:14N 35°57' W 005°31'312.4
2017-Nov-16 20:01N 35°59' W 005°29'612.1
2017-Nov-16 19:31N 36°03' W 005°24'2 0.4
2017-Nov-16 13:51N 36°02' W 005°22'513.8
2017-Nov-16 13:30N 35°58' W 005°26'4 0.6
2017-Nov-16 06:32N 35°56' W 005°31'011.8
2017-Nov-16 06:31N 35°57' W 005°30'612.2
2017-Nov-16 06:00N 36°01' W 005°25'613.0
2017-Nov-16 05:30N 36°07' W 005°24'2 0.5
2017-Nov-16 01:49N 36°08' W 005°26'0 0.0
2017-Nov-16 01:25N 36°08' W 005°26'0 0.0
2017-Nov-16 00:49N 36°08' W 005°26'0 0.0
2017-Nov-15 23:31N 36°08' W 005°26'0 0.0
2017-Nov-15 23:13N 36°08' W 005°26'0 0.0
2017-Nov-15 22:13N 36°08' W 005°26'0 0.0
2017-Nov-15 21:37N 36°08' W 005°26'0 0.0
2017-Nov-15 21:13N 36°08' W 005°26'6 4.9
2017-Nov-15 19:56N 36°02' W 005°22'613.3
2017-Nov-15 19:30N 35°58' W 005°26'5 0.9
2017-Nov-15 14:24N 35°57' W 005°32'512.3
2017-Nov-15 14:00N 36°00' W 005°27'4 0.7
2017-Nov-15 07:49N 36°03' W 005°23'412.5
2017-Nov-15 07:30N 35°59' W 005°24'8 0.7
2017-Nov-14 20:46N 35°54' W 005°31'3 9.8
2017-Nov-14 20:29N 35°57' W 005°32'510.8
2017-Nov-14 20:00N 35°60' W 005°27'611.7
2017-Nov-14 19:30N 36°05' W 005°24'3 0.7
2017-Nov-14 14:41N 36°08' W 005°26'6 6.5
2017-Nov-14 13:47N 36°02' W 005°23'413.9
2017-Nov-14 13:31N 35°59' W 005°24'9 0.3
2017-Nov-13 02:00N 36°08' W 005°26'0 0.0
2017-Nov-13 01:30N 36°08' W 005°26'0 0.0
2017-Nov-13 01:00N 36°08' W 005°26'0 0.0
2017-Nov-13 00:30N 36°08' W 005°26'0 0.7
2017-Nov-13 00:00N 36°08' W 005°26'2 3.6
2017-Nov-12 23:29N 36°07' W 005°24'4 7.4
2017-Nov-12 23:00N 36°04' W 005°23'713.4
2017-Nov-12 22:30N 35°58' W 005°26'5 1.2
2017-Nov-12 18:14N 35°57' W 005°32'311.3
2017-Nov-12 18:00N 35°58' W 005°29'5 9.6
2017-Nov-12 17:30N 36°01' W 005°25'711.4
2017-Nov-12 16:53N 36°08' W 005°24'2 4.8
2017-Nov-12 16:30N 36°08' W 005°26'0 0.0
2017-Nov-12 15:59N 36°08' W 005°26'0 0.0
2017-Nov-12 15:26N 36°08' W 005°26'0 0.0
2017-Nov-12 14:59N 36°08' W 005°26'0 0.0
2017-Nov-12 14:26N 36°08' W 005°26'0 0.0
2017-Nov-12 13:56N 36°08' W 005°26'0 0.0
2017-Nov-12 13:26N 36°08' W 005°26'0 0.0
2017-Nov-12 12:59N 36°08' W 005°26'0 0.0
2017-Nov-12 12:29N 36°08' W 005°26'0 0.0
2017-Nov-12 11:56N 36°08' W 005°26'0 0.1
2017-Nov-12 08:51N 36°08' W 005°26'6 8.7
2017-Nov-12 08:09N 36°03' W 005°23'213.9
2017-Nov-12 08:01N 36°01' W 005°23'9 0.8
2017-Nov-11 21:02N 35°57' W 005°32'013.1
2017-Nov-11 21:01N 35°57' W 005°32'612.4
2017-Nov-11 20:30N 36°01' W 005°26'612.5
2017-Nov-11 20:00N 36°07' W 005°24'2 3.9
2017-Nov-11 19:28N 36°08' W 005°26'0 0.0
2017-Nov-11 18:19N 36°08' W 005°26'0 0.0
2017-Nov-11 17:58N 36°08' W 005°26'0 0.0
2017-Nov-11 17:25N 36°08' W 005°26'0 0.0
2017-Nov-11 16:58N 36°08' W 005°26'0 0.0
2017-Nov-11 15:13N 36°08' W 005°26'1 3.0
2017-Nov-11 15:00N 36°08' W 005°26'5 8.1
2017-Nov-11 14:22N 36°04' W 005°23'513.9
2017-Nov-11 14:00N 35°59' W 005°24'6 0.3
2017-Nov-10 19:53N 35°56' W 005°31'512.6
2017-Nov-10 19:30N 35°60' W 005°27'5 0.8
2017-Nov-10 13:50N 36°03' W 005°23'413.5
2017-Nov-10 13:30N 35°59' W 005°25'5 0.7
2017-Nov-10 06:44N 35°56' W 005°31'312.4
2017-Nov-10 06:31N 35°59' W 005°29'612.6
2017-Nov-10 06:01N 36°04' W 005°24'611.1
2017-Nov-10 05:30N 36°09' W 005°26'1 2.5
2017-Nov-10 05:00N 36°08' W 005°26'0 0.0
2017-Nov-10 04:24N 36°08' W 005°26'0 0.0
2017-Nov-10 03:54N 36°08' W 005°26'0 0.0
2017-Nov-10 03:24N 36°08' W 005°26'0 0.0
2017-Nov-10 03:00N 36°08' W 005°26'0 0.0
2017-Nov-10 02:30N 36°08' W 005°26'0 0.0
2017-Nov-10 01:06N 36°08' W 005°26'0 0.0
2017-Nov-10 01:00N 36°08' W 005°26'0 0.0
2017-Nov-10 00:30N 36°08' W 005°26'0 0.0
2017-Nov-10 00:00N 36°08' W 005°26'0 0.0
2017-Nov-09 22:48N 36°08' W 005°26'0 0.0
2017-Nov-09 22:27N 36°08' W 005°26'0 0.0
2017-Nov-09 21:54N 36°08' W 005°26'0 0.3
2017-Nov-09 21:30N 36°08' W 005°26'6 4.3
2017-Nov-09 20:01N 36°02' W 005°23'  

Dump ship's entire track history